Accueil
METAR-TAF:

METAR-TAF

Aéroports :

Aérodrome de Samedan-Engadin

Saint-Moritz, Suisse

latitude: 46-32-03N, longitude: 9-53-03E, altitude: 1707 m

Observation

Le bulletin a été fait il y a 13 minutes, à 07:20 UTC
Vent 2 kt de direction variable
Température -18°C
Humidité 84%
Pression 1016 hPa
Visibilité 10 km ou plus
Nuages fragmentés à une hauteur de 1600 ft

METAR: LSZS 200720Z VRB02KT 9999 BKN016 M18/M20 Q1016 RMK B TL170

Heure: 08:33 (07:33 UTC)

Prévision

Le bulletin a été fait il y a 2 heures et 8 minutes, à 05:25 UTC
Prévision valable du 20 à 06 UTC au 20 à 15 UTC
Vent 2 kt de direction variable
Visibilité 10 km ou plus
Nuages fragmentés à une hauteur de 1800 ft
Temporairement
du 20 à 06 UTC au 20 à 09 UTC
Nuages fragmentés à une hauteur de 1400 ft

TAF: LSZS 200525Z 2006/2015 VRB02KT 9999 BKN018 TXM04/2014Z TEMPO 2006/2009 BKN014

Observations et prévisions météorologiques de plus de 4000 aéroports (messages METAR et TAF).

Les stations disponibles sont représentées par des disques jaunes et rouges sur la carte.

Passer la souris dessus pour voir le nom de la station.

Cliquer dessus pour voir les observations et prévisions météorologiques.

Pour changer de carte: cliquez sur les boutons verts avec une croix noire pour zoomer, sur le bouton vert avec un tiret pour effectuer un zoom arrière, ou sur les flèches vertes pour les cartes adjacentes.


METAR-TAF: